Grande-Riviere, Canada
Current Conditions -  °F | °C
As of 9:00 AM on Monday 22 Dec 2014 (Local Time) from CYGP Reporting Station
Broken Clouds Broken Clouds  
Wind Chill: 14°   Ceiling: 22000
Heat Index: 14°   Visibility: 15mi
Dew Point:   Wind: 2mph
Humidity: 79%   Direction: NA
Pressure: 30.48"   Gusts: NA
Location:  48.38°N, 64.5°W
Report Text: CYGP 221400Z VRB02KT 15SM SCT016 BKN220 M10/M13 A3048 RMK SC4CI3 SLP325
Loading
Personal Weather Stations






























Interactive Weather Map New forecast layout! Learn more

10-Day Weather Forecast

Advertisements
Track Severe Weather on mobile